sensor_id;sensor_type;location;lat;lon;timestamp;P1;durP1;ratioP1;P2;durP2;ratioP2
24137;SDS011;17947;50.672;6.076;2023-04-06T00:01:06;2.78;;;2.00;;
24137;SDS011;17947;50.672;6.076;2023-04-06T00:03:32;2.10;;;1.70;;
24137;SDS011;17947;50.672;6.076;2023-04-06T00:05:58;3.15;;;2.03;;
24137;SDS011;17947;50.672;6.076;2023-04-06T00:08:25;1.90;;;1.60;;
24137;SDS011;17947;50.672;6.076;2023-04-06T00:10:51;2.90;;;1.95;;
24137;SDS011;17947;50.672;6.076;2023-04-06T00:13:17;2.33;;;1.80;;
24137;SDS011;17947;50.672;6.076;2023-04-06T00:15:43;2.67;;;2.20;;
24137;SDS011;17947;50.672;6.076;2023-04-06T00:18:10;2.40;;;1.52;;
24137;SDS011;17947;50.672;6.076;2023-04-06T00:20:36;2.45;;;1.60;;
24137;SDS011;17947;50.672;6.076;2023-04-06T00:23:02;2.20;;;1.70;;
24137;SDS011;17947;50.672;6.076;2023-04-06T00:25:28;2.58;;;1.67;;
24137;SDS011;17947;50.672;6.076;2023-04-06T00:27:54;2.58;;;1.77;;
24137;SDS011;17947;50.672;6.076;2023-04-06T00:30:20;2.40;;;1.60;;
24137;SDS011;17947;50.672;6.076;2023-04-06T00:32:46;2.17;;;1.85;;
24137;SDS011;17947;50.672;6.076;2023-04-06T00:35:12;2.97;;;1.77;;
24137;SDS011;17947;50.672;6.076;2023-04-06T00:37:40;2.92;;;1.73;;
24137;SDS011;17947;50.672;6.076;2023-04-06T00:40:06;2.20;;;1.80;;
24137;SDS011;17947;50.672;6.076;2023-04-06T00:42:32;2.28;;;1.42;;
24137;SDS011;17947;50.672;6.076;2023-04-06T00:44:59;1.75;;;1.50;;
24137;SDS011;17947;50.672;6.076;2023-04-06T00:47:25;2.40;;;1.67;;
24137;SDS011;17947;50.672;6.076;2023-04-06T00:49:52;1.80;;;1.55;;
24137;SDS011;17947;50.672;6.076;2023-04-06T00:52:18;2.13;;;1.50;;
24137;SDS011;17947;50.672;6.076;2023-04-06T00:54:44;1.85;;;1.70;;
24137;SDS011;17947;50.672;6.076;2023-04-06T00:57:11;2.08;;;1.50;;
24137;SDS011;17947;50.672;6.076;2023-04-06T00:59:38;2.00;;;1.60;;
24137;SDS011;17947;50.672;6.076;2023-04-06T01:02:04;2.20;;;1.67;;
24137;SDS011;17947;50.672;6.076;2023-04-06T01:04:30;2.55;;;1.60;;
24137;SDS011;17947;50.672;6.076;2023-04-06T01:06:57;2.28;;;1.60;;
24137;SDS011;17947;50.672;6.076;2023-04-06T01:09:23;2.08;;;1.70;;
24137;SDS011;17947;50.672;6.076;2023-04-06T01:11:49;1.77;;;1.40;;
24137;SDS011;17947;50.672;6.076;2023-04-06T01:14:15;2.05;;;1.42;;
24137;SDS011;17947;50.672;6.076;2023-04-06T01:16:41;2.20;;;1.48;;
24137;SDS011;17947;50.672;6.076;2023-04-06T01:19:08;1.52;;;1.35;;
24137;SDS011;17947;50.672;6.076;2023-04-06T01:21:34;1.90;;;1.48;;
24137;SDS011;17947;50.672;6.076;2023-04-06T01:24:01;2.53;;;1.60;;
24137;SDS011;17947;50.672;6.076;2023-04-06T01:26:27;1.88;;;1.50;;
24137;SDS011;17947;50.672;6.076;2023-04-06T01:28:54;1.55;;;1.38;;
24137;SDS011;17947;50.672;6.076;2023-04-06T01:31:20;1.40;;;1.30;;
24137;SDS011;17947;50.672;6.076;2023-04-06T01:33:46;1.75;;;1.30;;
24137;SDS011;17947;50.672;6.076;2023-04-06T01:36:12;1.75;;;1.38;;
24137;SDS011;17947;50.672;6.076;2023-04-06T01:38:38;1.88;;;1.40;;
24137;SDS011;17947;50.672;6.076;2023-04-06T01:41:06;1.50;;;1.30;;
24137;SDS011;17947;50.672;6.076;2023-04-06T01:43:32;1.95;;;1.35;;
24137;SDS011;17947;50.672;6.076;2023-04-06T01:45:58;1.38;;;1.27;;
24137;SDS011;17947;50.672;6.076;2023-04-06T01:48:25;2.22;;;1.63;;
24137;SDS011;17947;50.672;6.076;2023-04-06T01:50:52;1.70;;;1.40;;
24137;SDS011;17947;50.672;6.076;2023-04-06T01:53:18;1.52;;;1.38;;
24137;SDS011;17947;50.672;6.076;2023-04-06T01:55:44;1.55;;;1.25;;
24137;SDS011;17947;50.672;6.076;2023-04-06T01:58:10;1.80;;;1.30;;
24137;SDS011;17947;50.672;6.076;2023-04-06T02:00:37;1.30;;;1.20;;
24137;SDS011;17947;50.672;6.076;2023-04-06T02:03:03;1.88;;;1.20;;
24137;SDS011;17947;50.672;6.076;2023-04-06T02:05:29;2.13;;;1.17;;
24137;SDS011;17947;50.672;6.076;2023-04-06T02:07:56;2.22;;;1.40;;
24137;SDS011;17947;50.672;6.076;2023-04-06T02:10:22;1.77;;;1.23;;
24137;SDS011;17947;50.672;6.076;2023-04-06T02:12:49;1.75;;;1.30;;
24137;SDS011;17947;50.672;6.076;2023-04-06T02:15:15;1.30;;;1.20;;
24137;SDS011;17947;50.672;6.076;2023-04-06T02:17:41;1.70;;;1.40;;
24137;SDS011;17947;50.672;6.076;2023-04-06T02:20:08;1.45;;;1.35;;
24137;SDS011;17947;50.672;6.076;2023-04-06T02:22:34;1.40;;;1.30;;
24137;SDS011;17947;50.672;6.076;2023-04-06T02:25:00;2.13;;;1.30;;
24137;SDS011;17947;50.672;6.076;2023-04-06T02:27:27;1.52;;;1.38;;
24137;SDS011;17947;50.672;6.076;2023-04-06T02:29:53;1.45;;;1.10;;
24137;SDS011;17947;50.672;6.076;2023-04-06T02:32:19;1.40;;;1.20;;
24137;SDS011;17947;50.672;6.076;2023-04-06T02:34:45;1.65;;;1.35;;
24137;SDS011;17947;50.672;6.076;2023-04-06T02:37:11;2.03;;;1.23;;
24137;SDS011;17947;50.672;6.076;2023-04-06T02:39:37;1.58;;;1.23;;
24137;SDS011;17947;50.672;6.076;2023-04-06T02:42:03;2.53;;;1.45;;
24137;SDS011;17947;50.672;6.076;2023-04-06T02:44:29;2.28;;;1.40;;
24137;SDS011;17947;50.672;6.076;2023-04-06T02:46:55;2.38;;;1.50;;
24137;SDS011;17947;50.672;6.076;2023-04-06T02:49:21;1.75;;;1.30;;
24137;SDS011;17947;50.672;6.076;2023-04-06T02:51:48;1.50;;;1.40;;
24137;SDS011;17947;50.672;6.076;2023-04-06T02:54:14;1.70;;;1.35;;
24137;SDS011;17947;50.672;6.076;2023-04-06T02:56:40;1.30;;;1.17;;
24137;SDS011;17947;50.672;6.076;2023-04-06T02:59:06;1.77;;;1.33;;
24137;SDS011;17947;50.672;6.076;2023-04-06T03:01:32;1.63;;;1.40;;
24137;SDS011;17947;50.672;6.076;2023-04-06T03:03:58;1.65;;;1.02;;
24137;SDS011;17947;50.672;6.076;2023-04-06T03:06:24;1.63;;;1.30;;
24137;SDS011;17947;50.672;6.076;2023-04-06T03:08:50;1.45;;;1.30;;
24137;SDS011;17947;50.672;6.076;2023-04-06T03:11:16;1.98;;;1.40;;
24137;SDS011;17947;50.672;6.076;2023-04-06T03:13:42;1.83;;;1.20;;
24137;SDS011;17947;50.672;6.076;2023-04-06T03:16:08;1.30;;;1.20;;
24137;SDS011;17947;50.672;6.076;2023-04-06T03:18:34;1.48;;;1.30;;
24137;SDS011;17947;50.672;6.076;2023-04-06T03:21:00;1.90;;;1.20;;
24137;SDS011;17947;50.672;6.076;2023-04-06T03:23:26;1.20;;;1.10;;
24137;SDS011;17947;50.672;6.076;2023-04-06T03:25:52;2.08;;;1.35;;
24137;SDS011;17947;50.672;6.076;2023-04-06T03:28:19;2.03;;;1.38;;
24137;SDS011;17947;50.672;6.076;2023-04-06T03:30:45;2.05;;;1.20;;
24137;SDS011;17947;50.672;6.076;2023-04-06T03:33:11;1.60;;;1.23;;
24137;SDS011;17947;50.672;6.076;2023-04-06T03:35:37;1.42;;;1.33;;
24137;SDS011;17947;50.672;6.076;2023-04-06T03:38:04;1.60;;;1.23;;
24137;SDS011;17947;50.672;6.076;2023-04-06T03:40:30;1.70;;;1.35;;
24137;SDS011;17947;50.672;6.076;2023-04-06T03:42:56;1.70;;;1.20;;
24137;SDS011;17947;50.672;6.076;2023-04-06T03:45:22;1.33;;;1.23;;
24137;SDS011;17947;50.672;6.076;2023-04-06T03:47:48;1.48;;;1.38;;
24137;SDS011;17947;50.672;6.076;2023-04-06T03:50:14;3.55;;;1.40;;
24137;SDS011;17947;50.672;6.076;2023-04-06T03:52:40;1.45;;;1.30;;
24137;SDS011;17947;50.672;6.076;2023-04-06T03:55:07;2.17;;;1.30;;
24137;SDS011;17947;50.672;6.076;2023-04-06T03:57:33;2.25;;;1.40;;
24137;SDS011;17947;50.672;6.076;2023-04-06T03:59:59;1.38;;;1.27;;
24137;SDS011;17947;50.672;6.076;2023-04-06T04:02:25;1.40;;;1.15;;
24137;SDS011;17947;50.672;6.076;2023-04-06T04:04:51;2.03;;;1.50;;
24137;SDS011;17947;50.672;6.076;2023-04-06T04:07:17;2.00;;;1.45;;
24137;SDS011;17947;50.672;6.076;2023-04-06T04:09:43;1.48;;;1.38;;
24137;SDS011;17947;50.672;6.076;2023-04-06T04:12:09;1.33;;;1.20;;
24137;SDS011;17947;50.672;6.076;2023-04-06T04:14:35;1.40;;;1.30;;
24137;SDS011;17947;50.672;6.076;2023-04-06T04:17:01;1.20;;;1.10;;
24137;SDS011;17947;50.672;6.076;2023-04-06T04:19:27;2.53;;;1.30;;
24137;SDS011;17947;50.672;6.076;2023-04-06T04:21:53;1.63;;;1.33;;
24137;SDS011;17947;50.672;6.076;2023-04-06T04:24:19;1.55;;;1.30;;
24137;SDS011;17947;50.672;6.076;2023-04-06T04:26:46;1.40;;;1.30;;
24137;SDS011;17947;50.672;6.076;2023-04-06T04:29:12;1.40;;;1.30;;
24137;SDS011;17947;50.672;6.076;2023-04-06T04:31:38;1.27;;;1.10;;
24137;SDS011;17947;50.672;6.076;2023-04-06T04:34:04;2.13;;;1.38;;
24137;SDS011;17947;50.672;6.076;2023-04-06T04:36:31;1.60;;;1.50;;
24137;SDS011;17947;50.672;6.076;2023-04-06T04:38:57;1.42;;;1.27;;
24137;SDS011;17947;50.672;6.076;2023-04-06T04:41:26;1.45;;;1.35;;
24137;SDS011;17947;50.672;6.076;2023-04-06T04:43:52;1.80;;;1.58;;
24137;SDS011;17947;50.672;6.076;2023-04-06T04:46:18;1.35;;;1.20;;
24137;SDS011;17947;50.672;6.076;2023-04-06T04:48:44;1.50;;;1.33;;
24137;SDS011;17947;50.672;6.076;2023-04-06T04:51:10;1.92;;;1.38;;
24137;SDS011;17947;50.672;6.076;2023-04-06T04:53:36;2.00;;;1.50;;
24137;SDS011;17947;50.672;6.076;2023-04-06T04:56:02;1.30;;;1.20;;
24137;SDS011;17947;50.672;6.076;2023-04-06T04:58:28;1.50;;;1.20;;
24137;SDS011;17947;50.672;6.076;2023-04-06T05:00:55;4.93;;;1.40;;
24137;SDS011;17947;50.672;6.076;2023-04-06T05:03:22;1.30;;;1.15;;
24137;SDS011;17947;50.672;6.076;2023-04-06T05:05:48;1.58;;;1.23;;
24137;SDS011;17947;50.672;6.076;2023-04-06T05:08:15;1.20;;;1.10;;
24137;SDS011;17947;50.672;6.076;2023-04-06T05:10:41;1.40;;;1.30;;
24137;SDS011;17947;50.672;6.076;2023-04-06T05:13:07;2.30;;;1.30;;
24137;SDS011;17947;50.672;6.076;2023-04-06T05:15:33;1.70;;;1.25;;
24137;SDS011;17947;50.672;6.076;2023-04-06T05:18:00;1.50;;;1.40;;
24137;SDS011;17947;50.672;6.076;2023-04-06T05:20:26;2.33;;;1.20;;
24137;SDS011;17947;50.672;6.076;2023-04-06T05:22:53;1.48;;;1.38;;
24137;SDS011;17947;50.672;6.076;2023-04-06T05:25:19;1.80;;;1.35;;
24137;SDS011;17947;50.672;6.076;2023-04-06T05:27:45;1.38;;;1.27;;
24137;SDS011;17947;50.672;6.076;2023-04-06T05:30:12;1.50;;;1.38;;
24137;SDS011;17947;50.672;6.076;2023-04-06T05:32:38;1.65;;;1.30;;
24137;SDS011;17947;50.672;6.076;2023-04-06T05:35:04;1.50;;;1.20;;
24137;SDS011;17947;50.672;6.076;2023-04-06T05:37:30;1.92;;;1.30;;
24137;SDS011;17947;50.672;6.076;2023-04-06T05:39:56;1.65;;;1.48;;
24137;SDS011;17947;50.672;6.076;2023-04-06T05:42:22;1.40;;;1.30;;
24137;SDS011;17947;50.672;6.076;2023-04-06T05:44:48;2.47;;;1.30;;
24137;SDS011;17947;50.672;6.076;2023-04-06T05:47:14;1.20;;;1.10;;
24137;SDS011;17947;50.672;6.076;2023-04-06T05:49:43;3.88;;;1.50;;
24137;SDS011;17947;50.672;6.076;2023-04-06T05:52:09;1.70;;;1.38;;
24137;SDS011;17947;50.672;6.076;2023-04-06T05:54:36;1.50;;;1.23;;
24137;SDS011;17947;50.672;6.076;2023-04-06T05:57:03;1.40;;;1.30;;
24137;SDS011;17947;50.672;6.076;2023-04-06T05:59:31;1.35;;;1.25;;
24137;SDS011;17947;50.672;6.076;2023-04-06T06:01:57;3.00;;;1.42;;
24137;SDS011;17947;50.672;6.076;2023-04-06T06:04:23;1.00;;;1.00;;
24137;SDS011;17947;50.672;6.076;2023-04-06T06:06:50;1.48;;;1.10;;
24137;SDS011;17947;50.672;6.076;2023-04-06T06:09:16;2.05;;;1.48;;
24137;SDS011;17947;50.672;6.076;2023-04-06T06:11:42;1.30;;;1.17;;
24137;SDS011;17947;50.672;6.076;2023-04-06T06:14:08;1.45;;;1.35;;
24137;SDS011;17947;50.672;6.076;2023-04-06T06:16:34;1.20;;;1.08;;
24137;SDS011;17947;50.672;6.076;2023-04-06T06:19:00;3.28;;;1.30;;
24137;SDS011;17947;50.672;6.076;2023-04-06T06:21:26;1.30;;;1.17;;
24137;SDS011;17947;50.672;6.076;2023-04-06T06:23:52;2.55;;;1.40;;
24137;SDS011;17947;50.672;6.076;2023-04-06T06:26:19;1.40;;;1.30;;
24137;SDS011;17947;50.672;6.076;2023-04-06T06:28:45;1.63;;;1.10;;
24137;SDS011;17947;50.672;6.076;2023-04-06T06:31:11;1.25;;;1.10;;
24137;SDS011;17947;50.672;6.076;2023-04-06T06:33:37;1.55;;;1.20;;
24137;SDS011;17947;50.672;6.076;2023-04-06T06:36:04;1.45;;;1.20;;
24137;SDS011;17947;50.672;6.076;2023-04-06T06:38:30;1.30;;;1.17;;
24137;SDS011;17947;50.672;6.076;2023-04-06T06:40:56;2.67;;;1.23;;
24137;SDS011;17947;50.672;6.076;2023-04-06T06:43:22;1.85;;;1.40;;
24137;SDS011;17947;50.672;6.076;2023-04-06T06:45:48;2.33;;;1.25;;
24137;SDS011;17947;50.672;6.076;2023-04-06T06:48:14;1.58;;;1.30;;
24137;SDS011;17947;50.672;6.076;2023-04-06T06:50:40;1.83;;;1.40;;
24137;SDS011;17947;50.672;6.076;2023-04-06T06:53:06;2.10;;;1.48;;
24137;SDS011;17947;50.672;6.076;2023-04-06T06:55:32;1.52;;;1.40;;
24137;SDS011;17947;50.672;6.076;2023-04-06T06:57:58;1.58;;;1.20;;
24137;SDS011;17947;50.672;6.076;2023-04-06T07:00:25;1.20;;;1.10;;
24137;SDS011;17947;50.672;6.076;2023-04-06T07:02:51;1.73;;;1.10;;
24137;SDS011;17947;50.672;6.076;2023-04-06T07:05:17;1.42;;;1.30;;
24137;SDS011;17947;50.672;6.076;2023-04-06T07:07:43;1.27;;;1.17;;
24137;SDS011;17947;50.672;6.076;2023-04-06T07:10:09;1.65;;;1.40;;
24137;SDS011;17947;50.672;6.076;2023-04-06T07:12:35;2.67;;;1.30;;
24137;SDS011;17947;50.672;6.076;2023-04-06T07:15:01;1.70;;;1.42;;
24137;SDS011;17947;50.672;6.076;2023-04-06T07:17:27;1.50;;;1.30;;
24137;SDS011;17947;50.672;6.076;2023-04-06T07:19:53;1.65;;;1.30;;
24137;SDS011;17947;50.672;6.076;2023-04-06T07:22:20;1.50;;;1.38;;
24137;SDS011;17947;50.672;6.076;2023-04-06T07:24:46;1.73;;;1.40;;
24137;SDS011;17947;50.672;6.076;2023-04-06T07:27:12;1.67;;;1.30;;
24137;SDS011;17947;50.672;6.076;2023-04-06T07:29:38;1.65;;;1.30;;
24137;SDS011;17947;50.672;6.076;2023-04-06T07:32:04;1.70;;;1.40;;
24137;SDS011;17947;50.672;6.076;2023-04-06T07:34:30;2.63;;;1.58;;
24137;SDS011;17947;50.672;6.076;2023-04-06T07:36:57;1.38;;;1.27;;
24137;SDS011;17947;50.672;6.076;2023-04-06T07:39:23;2.70;;;1.33;;
24137;SDS011;17947;50.672;6.076;2023-04-06T07:41:51;1.55;;;1.33;;
24137;SDS011;17947;50.672;6.076;2023-04-06T07:44:17;1.67;;;1.30;;
24137;SDS011;17947;50.672;6.076;2023-04-06T07:46:43;2.47;;;1.45;;
24137;SDS011;17947;50.672;6.076;2023-04-06T07:49:09;2.28;;;1.38;;
24137;SDS011;17947;50.672;6.076;2023-04-06T07:51:36;1.67;;;1.58;;
24137;SDS011;17947;50.672;6.076;2023-04-06T07:54:02;2.42;;;1.30;;
24137;SDS011;17947;50.672;6.076;2023-04-06T07:56:28;1.52;;;1.33;;
24137;SDS011;17947;50.672;6.076;2023-04-06T07:58:54;1.58;;;1.23;;
24137;SDS011;17947;50.672;6.076;2023-04-06T08:01:22;1.58;;;1.23;;
24137;SDS011;17947;50.672;6.076;2023-04-06T08:03:48;1.58;;;1.35;;
24137;SDS011;17947;50.672;6.076;2023-04-06T08:06:15;1.67;;;1.38;;
24137;SDS011;17947;50.672;6.076;2023-04-06T08:08:41;1.65;;;1.33;;
24137;SDS011;17947;50.672;6.076;2023-04-06T08:11:07;2.75;;;1.60;;
24137;SDS011;17947;50.672;6.076;2023-04-06T08:13:33;2.25;;;1.48;;
24137;SDS011;17947;50.672;6.076;2023-04-06T08:16:00;1.70;;;1.48;;
24137;SDS011;17947;50.672;6.076;2023-04-06T08:18:26;1.50;;;1.40;;
24137;SDS011;17947;50.672;6.076;2023-04-06T08:20:52;1.92;;;1.40;;
24137;SDS011;17947;50.672;6.076;2023-04-06T08:23:18;1.55;;;1.30;;
24137;SDS011;17947;50.672;6.076;2023-04-06T08:25:44;2.00;;;1.40;;
24137;SDS011;17947;50.672;6.076;2023-04-06T08:28:10;1.60;;;1.40;;
24137;SDS011;17947;50.672;6.076;2023-04-06T08:30:39;2.45;;;1.52;;
24137;SDS011;17947;50.672;6.076;2023-04-06T08:33:05;1.35;;;1.25;;
24137;SDS011;17947;50.672;6.076;2023-04-06T08:35:31;1.58;;;1.20;;
24137;SDS011;17947;50.672;6.076;2023-04-06T08:37:57;2.10;;;1.40;;
24137;SDS011;17947;50.672;6.076;2023-04-06T08:40:23;2.35;;;1.63;;
24137;SDS011;17947;50.672;6.076;2023-04-06T08:42:52;1.58;;;1.42;;
24137;SDS011;17947;50.672;6.076;2023-04-06T08:45:19;1.63;;;1.40;;
24137;SDS011;17947;50.672;6.076;2023-04-06T08:47:46;1.92;;;1.42;;
24137;SDS011;17947;50.672;6.076;2023-04-06T08:50:13;1.55;;;1.20;;
24137;SDS011;17947;50.672;6.076;2023-04-06T08:52:39;1.88;;;1.50;;
24137;SDS011;17947;50.672;6.076;2023-04-06T08:55:06;2.90;;;1.48;;
24137;SDS011;17947;50.672;6.076;2023-04-06T08:57:32;1.92;;;1.30;;
24137;SDS011;17947;50.672;6.076;2023-04-06T08:59:59;1.52;;;1.20;;
24137;SDS011;17947;50.672;6.076;2023-04-06T09:02:26;2.28;;;1.40;;
24137;SDS011;17947;50.672;6.076;2023-04-06T09:04:53;2.42;;;1.50;;
24137;SDS011;17947;50.672;6.076;2023-04-06T09:07:20;1.40;;;1.30;;
24137;SDS011;17947;50.672;6.076;2023-04-06T09:09:46;2.08;;;1.50;;
24137;SDS011;17947;50.672;6.076;2023-04-06T09:12:25;1.75;;;1.40;;
24137;SDS011;17947;50.672;6.076;2023-04-06T09:14:51;2.20;;;1.38;;
24137;SDS011;17947;50.672;6.076;2023-04-06T09:17:21;1.80;;;1.40;;
24137;SDS011;17947;50.672;6.076;2023-04-06T09:19:48;1.85;;;1.30;;
24137;SDS011;17947;50.672;6.076;2023-04-06T09:22:14;1.85;;;1.30;;
24137;SDS011;17947;50.672;6.076;2023-04-06T09:24:50;2.22;;;1.50;;
24137;SDS011;17947;50.672;6.076;2023-04-06T09:27:16;1.40;;;1.30;;
24137;SDS011;17947;50.672;6.076;2023-04-06T09:29:43;1.98;;;1.58;;
24137;SDS011;17947;50.672;6.076;2023-04-06T09:32:10;2.15;;;1.52;;
24137;SDS011;17947;50.672;6.076;2023-04-06T09:34:39;1.42;;;1.33;;
24137;SDS011;17947;50.672;6.076;2023-04-06T09:37:12;1.58;;;1.38;;
24137;SDS011;17947;50.672;6.076;2023-04-06T09:39:38;2.10;;;1.55;;
24137;SDS011;17947;50.672;6.076;2023-04-06T09:42:04;2.13;;;1.33;;
24137;SDS011;17947;50.672;6.076;2023-04-06T09:44:30;1.85;;;1.58;;
24137;SDS011;17947;50.672;6.076;2023-04-06T09:46:57;2.53;;;1.60;;
24137;SDS011;17947;50.672;6.076;2023-04-06T09:49:23;2.22;;;1.52;;
24137;SDS011;17947;50.672;6.076;2023-04-06T09:51:57;1.85;;;1.30;;
24137;SDS011;17947;50.672;6.076;2023-04-06T09:54:25;3.03;;;1.40;;
24137;SDS011;17947;50.672;6.076;2023-04-06T10:02:08;1.88;;;1.42;;
24137;SDS011;17947;50.672;6.076;2023-04-06T10:04:48;1.67;;;1.40;;
24137;SDS011;17947;50.672;6.076;2023-04-06T10:07:15;2.20;;;1.63;;
24137;SDS011;17947;50.672;6.076;2023-04-06T10:09:42;3.20;;;1.80;;
24137;SDS011;17947;50.672;6.076;2023-04-06T10:12:10;2.33;;;1.58;;
24137;SDS011;17947;50.672;6.076;2023-04-06T10:14:36;2.45;;;1.58;;
24137;SDS011;17947;50.672;6.076;2023-04-06T10:17:03;2.25;;;1.67;;
24137;SDS011;17947;50.672;6.076;2023-04-06T10:19:32;1.73;;;1.50;;
24137;SDS011;17947;50.672;6.076;2023-04-06T10:21:58;1.88;;;1.60;;
24137;SDS011;17947;50.672;6.076;2023-04-06T10:24:25;1.85;;;1.40;;
24137;SDS011;17947;50.672;6.076;2023-04-06T10:26:58;3.05;;;1.50;;
24137;SDS011;17947;50.672;6.076;2023-04-06T10:29:25;1.55;;;1.40;;
24137;SDS011;17947;50.672;6.076;2023-04-06T10:31:51;1.50;;;1.40;;
24137;SDS011;17947;50.672;6.076;2023-04-06T10:34:17;1.80;;;1.70;;
24137;SDS011;17947;50.672;6.076;2023-04-06T10:36:43;1.48;;;1.30;;
24137;SDS011;17947;50.672;6.076;2023-04-06T10:39:09;1.98;;;1.45;;
24137;SDS011;17947;50.672;6.076;2023-04-06T10:41:36;1.73;;;1.48;;
24137;SDS011;17947;50.672;6.076;2023-04-06T10:44:02;1.90;;;1.40;;
24137;SDS011;17947;50.672;6.076;2023-04-06T10:46:29;2.25;;;1.48;;
24137;SDS011;17947;50.672;6.076;2023-04-06T10:48:55;1.75;;;1.52;;
24137;SDS011;17947;50.672;6.076;2023-04-06T10:51:25;1.60;;;1.33;;
24137;SDS011;17947;50.672;6.076;2023-04-06T10:53:52;1.42;;;1.33;;
24137;SDS011;17947;50.672;6.076;2023-04-06T10:56:20;2.25;;;1.40;;
24137;SDS011;17947;50.672;6.076;2023-04-06T10:58:47;1.85;;;1.42;;
24137;SDS011;17947;50.672;6.076;2023-04-06T11:01:18;2.13;;;1.42;;
24137;SDS011;17947;50.672;6.076;2023-04-06T11:06:10;1.98;;;1.70;;
24137;SDS011;17947;50.672;6.076;2023-04-06T11:08:36;1.92;;;1.60;;
24137;SDS011;17947;50.672;6.076;2023-04-06T11:11:07;2.63;;;1.70;;
24137;SDS011;17947;50.672;6.076;2023-04-06T11:13:41;2.88;;;1.52;;
24137;SDS011;17947;50.672;6.076;2023-04-06T11:16:14;1.85;;;1.50;;
24137;SDS011;17947;50.672;6.076;2023-04-06T11:21:15;2.22;;;1.58;;
24137;SDS011;17947;50.672;6.076;2023-04-06T11:23:41;2.05;;;1.27;;
24137;SDS011;17947;50.672;6.076;2023-04-06T11:26:14;1.42;;;1.30;;
24137;SDS011;17947;50.672;6.076;2023-04-06T11:28:40;2.38;;;1.33;;
24137;SDS011;17947;50.672;6.076;2023-04-06T11:31:09;1.63;;;1.23;;
24137;SDS011;17947;50.672;6.076;2023-04-06T11:33:36;1.88;;;1.42;;
24137;SDS011;17947;50.672;6.076;2023-04-06T11:36:03;1.77;;;1.40;;
24137;SDS011;17947;50.672;6.076;2023-04-06T11:38:29;1.50;;;1.38;;
24137;SDS011;17947;50.672;6.076;2023-04-06T11:40:56;2.25;;;1.20;;
24137;SDS011;17947;50.672;6.076;2023-04-06T11:43:29;1.40;;;1.20;;
24137;SDS011;17947;50.672;6.076;2023-04-06T11:46:02;1.73;;;1.50;;
24137;SDS011;17947;50.672;6.076;2023-04-06T11:48:28;1.30;;;1.20;;
24137;SDS011;17947;50.672;6.076;2023-04-06T11:50:57;1.30;;;1.20;;
24137;SDS011;17947;50.672;6.076;2023-04-06T11:53:26;1.63;;;1.42;;
24137;SDS011;17947;50.672;6.076;2023-04-06T11:55:52;1.30;;;1.20;;
24137;SDS011;17947;50.672;6.076;2023-04-06T11:58:18;1.65;;;1.25;;
24137;SDS011;17947;50.672;6.076;2023-04-06T12:00:44;1.75;;;1.20;;
24137;SDS011;17947;50.672;6.076;2023-04-06T12:03:11;1.50;;;1.35;;
24137;SDS011;17947;50.672;6.076;2023-04-06T12:05:38;1.60;;;1.50;;
24137;SDS011;17947;50.672;6.076;2023-04-06T12:08:04;1.50;;;1.40;;
24137;SDS011;17947;50.672;6.076;2023-04-06T12:10:30;1.20;;;1.10;;
24137;SDS011;17947;50.672;6.076;2023-04-06T12:12:56;1.20;;;1.10;;
24137;SDS011;17947;50.672;6.076;2023-04-06T12:15:22;3.03;;;1.30;;
24137;SDS011;17947;50.672;6.076;2023-04-06T12:17:48;1.38;;;1.25;;
24137;SDS011;17947;50.672;6.076;2023-04-06T12:20:15;2.10;;;1.40;;
24137;SDS011;17947;50.672;6.076;2023-04-06T12:22:41;1.90;;;1.33;;
24137;SDS011;17947;50.672;6.076;2023-04-06T12:25:07;1.40;;;1.30;;
24137;SDS011;17947;50.672;6.076;2023-04-06T12:27:33;2.25;;;1.45;;
24137;SDS011;17947;50.672;6.076;2023-04-06T12:29:59;2.03;;;1.40;;
24137;SDS011;17947;50.672;6.076;2023-04-06T12:32:25;1.50;;;1.40;;
24137;SDS011;17947;50.672;6.076;2023-04-06T12:34:54;1.40;;;1.30;;
24137;SDS011;17947;50.672;6.076;2023-04-06T12:37:20;3.00;;;1.55;;
24137;SDS011;17947;50.672;6.076;2023-04-06T12:39:46;2.22;;;1.38;;
24137;SDS011;17947;50.672;6.076;2023-04-06T12:42:12;1.30;;;1.20;;
24137;SDS011;17947;50.672;6.076;2023-04-06T12:44:38;1.48;;;1.30;;
24137;SDS011;17947;50.672;6.076;2023-04-06T12:47:07;2.00;;;1.33;;
24137;SDS011;17947;50.672;6.076;2023-04-06T12:49:33;1.30;;;1.20;;
24137;SDS011;17947;50.672;6.076;2023-04-06T12:52:00;1.42;;;1.30;;
24137;SDS011;17947;50.672;6.076;2023-04-06T12:54:27;1.42;;;1.10;;
24137;SDS011;17947;50.672;6.076;2023-04-06T12:56:53;1.73;;;1.40;;
24137;SDS011;17947;50.672;6.076;2023-04-06T12:59:21;1.50;;;1.30;;
24137;SDS011;17947;50.672;6.076;2023-04-06T13:01:47;1.73;;;1.25;;
24137;SDS011;17947;50.672;6.076;2023-04-06T13:04:13;1.50;;;1.27;;
24137;SDS011;17947;50.672;6.076;2023-04-06T13:06:39;1.73;;;1.20;;
24137;SDS011;17947;50.672;6.076;2023-04-06T13:09:05;1.75;;;1.58;;
24137;SDS011;17947;50.672;6.076;2023-04-06T13:11:32;1.10;;;1.00;;
24137;SDS011;17947;50.672;6.076;2023-04-06T13:13:58;1.38;;;1.23;;
24137;SDS011;17947;50.672;6.076;2023-04-06T13:16:25;1.30;;;1.15;;
24137;SDS011;17947;50.672;6.076;2023-04-06T13:18:51;1.30;;;1.20;;
24137;SDS011;17947;50.672;6.076;2023-04-06T13:21:17;1.17;;;1.00;;
24137;SDS011;17947;50.672;6.076;2023-04-06T13:23:44;1.60;;;1.10;;
24137;SDS011;17947;50.672;6.076;2023-04-06T13:26:10;1.40;;;1.30;;
24137;SDS011;17947;50.672;6.076;2023-04-06T13:28:38;2.15;;;1.20;;
24137;SDS011;17947;50.672;6.076;2023-04-06T13:31:05;2.03;;;1.33;;
24137;SDS011;17947;50.672;6.076;2023-04-06T13:33:31;1.33;;;1.23;;
24137;SDS011;17947;50.672;6.076;2023-04-06T13:35:57;1.52;;;1.42;;
24137;SDS011;17947;50.672;6.076;2023-04-06T13:38:24;0.90;;;0.90;;
24137;SDS011;17947;50.672;6.076;2023-04-06T13:40:50;1.30;;;1.20;;
24137;SDS011;17947;50.672;6.076;2023-04-06T13:43:16;1.40;;;1.08;;
24137;SDS011;17947;50.672;6.076;2023-04-06T13:45:52;1.45;;;1.17;;
24137;SDS011;17947;50.672;6.076;2023-04-06T13:48:19;1.20;;;1.10;;
24137;SDS011;17947;50.672;6.076;2023-04-06T13:50:45;1.45;;;1.00;;
24137;SDS011;17947;50.672;6.076;2023-04-06T13:53:12;1.70;;;1.10;;
24137;SDS011;17947;50.672;6.076;2023-04-06T13:55:38;1.20;;;1.10;;
24137;SDS011;17947;50.672;6.076;2023-04-06T13:58:04;1.17;;;1.08;;
24137;SDS011;17947;50.672;6.076;2023-04-06T14:00:30;1.33;;;1.23;;
24137;SDS011;17947;50.672;6.076;2023-04-06T14:02:56;1.20;;;1.02;;
24137;SDS011;17947;50.672;6.076;2023-04-06T14:05:22;1.10;;;1.00;;
24137;SDS011;17947;50.672;6.076;2023-04-06T14:07:49;1.10;;;1.00;;
24137;SDS011;17947;50.672;6.076;2023-04-06T14:10:15;1.20;;;1.10;;
24137;SDS011;17947;50.672;6.076;2023-04-06T14:12:41;1.00;;;0.90;;
24137;SDS011;17947;50.672;6.076;2023-04-06T14:15:08;1.05;;;0.95;;
24137;SDS011;17947;50.672;6.076;2023-04-06T14:17:35;0.90;;;0.90;;
24137;SDS011;17947;50.672;6.076;2023-04-06T14:20:02;1.52;;;1.08;;
24137;SDS011;17947;50.672;6.076;2023-04-06T14:22:28;1.20;;;1.10;;
24137;SDS011;17947;50.672;6.076;2023-04-06T14:24:54;0.80;;;0.80;;
24137;SDS011;17947;50.672;6.076;2023-04-06T14:27:20;1.17;;;1.00;;
24137;SDS011;17947;50.672;6.076;2023-04-06T14:29:47;0.88;;;0.88;;
24137;SDS011;17947;50.672;6.076;2023-04-06T14:32:13;1.42;;;1.10;;
24137;SDS011;17947;50.672;6.076;2023-04-06T14:34:38;1.13;;;1.00;;
24137;SDS011;17947;50.672;6.076;2023-04-06T14:37:05;0.90;;;0.90;;
24137;SDS011;17947;50.672;6.076;2023-04-06T14:39:31;1.02;;;0.90;;
24137;SDS011;17947;50.672;6.076;2023-04-06T14:41:57;0.90;;;0.90;;
24137;SDS011;17947;50.672;6.076;2023-04-06T14:44:23;1.05;;;0.93;;
24137;SDS011;17947;50.672;6.076;2023-04-06T14:46:49;0.90;;;0.90;;
24137;SDS011;17947;50.672;6.076;2023-04-06T14:49:15;1.00;;;0.90;;
24137;SDS011;17947;50.672;6.076;2023-04-06T14:51:41;1.13;;;1.00;;
24137;SDS011;17947;50.672;6.076;2023-04-06T14:54:07;1.05;;;0.75;;